createdAt,value
2023-04-28T00:01:46.137Z,0.70
2023-04-28T00:04:13.678Z,1.08
2023-04-28T00:06:41.268Z,1.00
2023-04-28T00:09:11.223Z,0.98
2023-04-28T00:11:39.245Z,0.85
2023-04-28T00:14:07.048Z,1.08
2023-04-28T00:16:33.922Z,0.85
2023-04-28T00:19:01.239Z,0.95
2023-04-28T00:21:28.998Z,0.80
2023-04-28T00:23:56.389Z,1.00
2023-04-28T00:26:23.445Z,1.10
2023-04-28T00:28:50.876Z,0.90
2023-04-28T00:31:17.944Z,0.85
2023-04-28T00:33:45.024Z,1.10
2023-04-28T00:36:15.189Z,1.08
2023-04-28T00:38:42.065Z,1.00
2023-04-28T00:41:12.317Z,0.93
2023-04-28T00:44:00.794Z,0.90
2023-04-28T00:46:33.574Z,1.00
2023-04-28T00:49:00.797Z,0.93
2023-04-28T00:51:29.324Z,0.90
2023-04-28T00:53:57.370Z,0.93
2023-04-28T00:56:27.737Z,0.82
2023-04-28T00:58:54.742Z,1.30
2023-04-28T01:01:21.856Z,1.00
2023-04-28T01:03:49.361Z,1.30
2023-04-28T01:06:17.321Z,1.30
2023-04-28T01:08:48.761Z,1.20
2023-04-28T01:11:15.768Z,1.15
2023-04-28T01:13:42.797Z,1.10
2023-04-28T01:16:10.544Z,0.90
2023-04-28T01:18:37.437Z,1.38
2023-04-28T01:21:04.800Z,0.82
2023-04-28T01:23:31.996Z,1.08
2023-04-28T01:26:01.970Z,1.05
2023-04-28T01:28:29.061Z,1.20
2023-04-28T01:30:56.794Z,1.08
2023-04-28T01:33:26.618Z,1.27
2023-04-28T01:35:58.338Z,1.38
2023-04-28T01:38:25.215Z,1.20
2023-04-28T01:40:52.094Z,1.05
2023-04-28T01:43:19.175Z,1.60
2023-04-28T01:45:46.104Z,1.27
2023-04-28T01:48:12.947Z,1.30
2023-04-28T01:50:40.021Z,1.10
2023-04-28T01:53:07.892Z,1.08
2023-04-28T01:55:34.949Z,1.20
2023-04-28T01:58:01.765Z,1.17
2023-04-28T02:00:28.759Z,1.23
2023-04-28T02:02:55.908Z,1.30
2023-04-28T02:05:23.043Z,1.27
2023-04-28T02:07:50.046Z,1.20
2023-04-28T02:10:16.890Z,1.20
2023-04-28T02:12:43.874Z,1.17
2023-04-28T02:15:11.205Z,1.20
2023-04-28T02:17:38.070Z,1.13
2023-04-28T02:20:14.591Z,1.40
2023-04-28T02:22:41.708Z,1.38
2023-04-28T02:25:09.180Z,0.93
2023-04-28T02:27:39.754Z,2.60
2023-04-28T02:30:07.362Z,1.08
2023-04-28T02:32:34.757Z,1.10
2023-04-28T02:35:02.295Z,1.40
2023-04-28T02:37:29.177Z,0.98
2023-04-28T02:39:56.134Z,1.15
2023-04-28T02:42:23.106Z,1.00
2023-04-28T02:44:49.987Z,1.20
2023-04-28T02:47:16.946Z,1.55
2023-04-28T02:49:43.977Z,1.30
2023-04-28T02:52:13.789Z,1.25
2023-04-28T02:54:41.351Z,1.10
2023-04-28T02:57:08.506Z,1.50
2023-04-28T02:59:35.861Z,1.40
2023-04-28T03:02:02.826Z,1.40
2023-04-28T03:04:29.798Z,0.90
2023-04-28T03:06:56.728Z,1.58
2023-04-28T03:09:23.896Z,1.30
2023-04-28T03:11:51.111Z,1.35
2023-04-28T03:14:18.254Z,1.30
2023-04-28T03:16:45.268Z,1.10
2023-04-28T03:19:12.205Z,1.25
2023-04-28T03:21:39.246Z,1.27
2023-04-28T03:24:06.411Z,1.20
2023-04-28T03:26:33.673Z,1.10
2023-04-28T03:29:00.674Z,1.08
2023-04-28T03:31:27.604Z,1.13
2023-04-28T03:33:54.768Z,1.35
2023-04-28T03:36:21.696Z,1.10
2023-04-28T03:38:48.600Z,1.10
2023-04-28T03:41:15.498Z,1.17
2023-04-28T03:43:42.424Z,1.30
2023-04-28T03:46:09.709Z,1.40
2023-04-28T03:48:36.732Z,1.30
2023-04-28T03:51:03.662Z,1.50
2023-04-28T03:53:30.469Z,0.98
2023-04-28T03:55:57.426Z,1.10
2023-04-28T03:58:24.473Z,1.30
2023-04-28T04:00:51.212Z,1.20
2023-04-28T04:03:18.334Z,1.38
2023-04-28T04:05:46.122Z,1.35
2023-04-28T04:08:12.967Z,1.15
2023-04-28T04:10:39.927Z,1.17
2023-04-28T04:13:07.245Z,1.38
2023-04-28T04:15:34.484Z,1.27
2023-04-28T04:18:01.858Z,1.05
2023-04-28T04:20:28.903Z,1.23
2023-04-28T04:22:55.829Z,1.60
2023-04-28T04:25:23.502Z,1.30
2023-04-28T04:27:50.596Z,1.40
2023-04-28T04:30:17.285Z,1.83
2023-04-28T04:32:44.610Z,1.40
2023-04-28T04:35:11.476Z,1.35
2023-04-28T04:37:38.520Z,1.10
2023-04-28T04:40:06.379Z,1.48
2023-04-28T04:42:33.489Z,1.00
2023-04-28T04:45:00.436Z,1.10
2023-04-28T04:47:29.735Z,1.27
2023-04-28T04:49:56.782Z,1.25
2023-04-28T04:52:24.132Z,1.80
2023-04-28T04:54:51.343Z,1.20
2023-04-28T04:57:18.386Z,1.08
2023-04-28T04:59:46.279Z,1.52
2023-04-28T05:02:13.255Z,1.50
2023-04-28T05:04:41.021Z,1.67
2023-04-28T05:07:08.004Z,0.98
2023-04-28T05:09:35.526Z,1.30
2023-04-28T05:12:02.657Z,1.10
2023-04-28T05:14:29.672Z,1.13
2023-04-28T05:16:57.271Z,1.25
2023-04-28T05:19:25.155Z,1.50
2023-04-28T05:21:54.690Z,1.00
2023-04-28T05:24:25.547Z,1.02
2023-04-28T05:26:54.302Z,1.05
2023-04-28T05:29:22.325Z,1.40
2023-04-28T05:31:49.096Z,1.30
2023-04-28T05:34:16.637Z,1.30
2023-04-28T05:36:45.198Z,2.58
2023-04-28T05:39:12.237Z,0.90
2023-04-28T05:41:39.267Z,1.40
2023-04-28T05:44:16.105Z,1.10
2023-04-28T05:46:43.606Z,1.10
2023-04-28T05:49:11.437Z,1.13
2023-04-28T05:51:39.105Z,1.33
2023-04-28T05:54:06.044Z,0.90
2023-04-28T05:56:33.849Z,1.08
2023-04-28T05:59:04.450Z,0.80
2023-04-28T06:01:32.446Z,1.30
2023-04-28T06:03:59.770Z,1.40
2023-04-28T06:06:30.708Z,1.70
2023-04-28T06:08:57.822Z,0.98
2023-04-28T06:11:24.517Z,1.00
2023-04-28T06:13:51.889Z,1.00
2023-04-28T06:16:19.161Z,1.15
2023-04-28T06:18:47.316Z,1.35
2023-04-28T06:21:17.221Z,1.10
2023-04-28T06:23:44.284Z,1.48
2023-04-28T06:26:11.274Z,1.20
2023-04-28T06:28:38.472Z,1.10
2023-04-28T06:31:05.341Z,1.30
2023-04-28T06:33:32.464Z,1.17
2023-04-28T06:35:59.424Z,1.30
2023-04-28T06:38:26.972Z,1.83
2023-04-28T06:40:53.955Z,1.00
2023-04-28T06:43:21.008Z,1.00
2023-04-28T06:45:48.546Z,1.38
2023-04-28T06:48:15.886Z,1.00
2023-04-28T06:50:43.680Z,1.25
2023-04-28T06:53:12.096Z,1.30
2023-04-28T06:55:39.107Z,1.67
2023-04-28T06:58:06.155Z,0.85
2023-04-28T07:00:33.064Z,0.65
2023-04-28T07:03:00.272Z,0.93
2023-04-28T07:05:28.035Z,0.77
2023-04-28T07:07:55.026Z,0.50
2023-04-28T07:10:21.968Z,0.70
2023-04-28T07:12:50.853Z,1.10
2023-04-28T07:15:17.805Z,1.25
2023-04-28T07:17:44.995Z,0.82
2023-04-28T07:20:13.783Z,1.83
2023-04-28T07:22:40.804Z,0.90
2023-04-28T07:25:08.029Z,1.27
2023-04-28T07:27:45.436Z,0.85
2023-04-28T07:30:26.645Z,1.10
2023-04-28T07:33:00.507Z,0.98
2023-04-28T07:35:27.604Z,0.80
2023-04-28T07:37:55.226Z,1.52
2023-04-28T07:40:23.016Z,2.17
2023-04-28T07:42:50.753Z,1.35
2023-04-28T07:45:17.950Z,1.67
2023-04-28T07:47:44.603Z,1.20
2023-04-28T07:50:12.609Z,1.10
2023-04-28T07:52:40.030Z,1.15
2023-04-28T07:55:07.495Z,1.35
2023-04-28T07:57:34.787Z,0.90
2023-04-28T08:00:01.934Z,0.90
2023-04-28T08:02:28.970Z,0.98
2023-04-28T08:04:56.162Z,0.98
2023-04-28T08:07:23.398Z,0.90
2023-04-28T08:09:53.232Z,0.85
2023-04-28T08:12:20.996Z,1.05
2023-04-28T08:14:48.948Z,0.85
2023-04-28T08:17:15.712Z,0.82
2023-04-28T08:19:45.218Z,1.02
2023-04-28T08:22:12.646Z,1.00
2023-04-28T08:24:39.473Z,0.90
2023-04-28T08:27:06.887Z,0.90
2023-04-28T08:29:34.331Z,0.82
2023-04-28T08:32:05.020Z,1.05
2023-04-28T08:34:32.037Z,1.25
2023-04-28T08:36:59.307Z,0.95
2023-04-28T08:39:26.987Z,1.10
2023-04-28T08:41:54.798Z,1.10
2023-04-28T08:44:23.869Z,0.52
2023-04-28T08:46:56.600Z,1.10
2023-04-28T08:49:28.773Z,0.82
2023-04-28T08:52:00.286Z,0.65
2023-04-28T08:54:32.622Z,0.73
2023-04-28T08:57:00.627Z,0.80
2023-04-28T08:59:27.777Z,0.80
2023-04-28T09:01:54.721Z,0.73
2023-04-28T09:04:22.323Z,0.60
2023-04-28T09:06:50.056Z,0.28
2023-04-28T09:09:27.899Z,0.50
2023-04-28T09:12:02.342Z,0.60
2023-04-28T09:14:30.412Z,0.73
2023-04-28T09:16:57.717Z,0.73
2023-04-28T09:19:33.116Z,0.60
2023-04-28T09:22:05.590Z,0.60
2023-04-28T09:24:44.717Z,0.52
2023-04-28T09:27:12.271Z,0.75
2023-04-28T09:29:39.994Z,1.35
2023-04-28T09:32:14.898Z,0.70
2023-04-28T09:37:20.274Z,1.23
2023-04-28T09:39:49.934Z,1.40
2023-04-28T09:42:35.532Z,1.70
2023-04-28T09:45:04.869Z,0.60
2023-04-28T09:47:33.845Z,0.80
2023-04-28T09:50:03.424Z,0.93
2023-04-28T09:52:30.448Z,0.73
2023-04-28T09:54:57.864Z,0.70
2023-04-28T09:57:25.013Z,0.60
2023-04-28T09:59:53.357Z,0.60
2023-04-28T10:02:42.619Z,0.57
2023-04-28T10:05:10.341Z,1.20
2023-04-28T10:07:45.440Z,1.20
2023-04-28T10:10:15.139Z,0.87
2023-04-28T10:12:42.828Z,0.60
2023-04-28T10:15:10.427Z,1.08
2023-04-28T10:17:45.407Z,0.75
2023-04-28T10:20:12.828Z,0.47
2023-04-28T10:23:07.284Z,0.70
2023-04-28T10:25:39.380Z,0.55
2023-04-28T10:28:08.982Z,0.60
2023-04-28T10:30:36.326Z,1.02
2023-04-28T10:33:12.176Z,0.60
2023-04-28T10:35:40.685Z,0.60
2023-04-28T10:38:15.543Z,0.50
2023-04-28T10:40:44.875Z,0.70
2023-04-28T10:43:13.326Z,1.15
2023-04-28T10:45:49.521Z,0.77
2023-04-28T10:48:17.413Z,0.52
2023-04-28T10:51:15.472Z,0.52
2023-04-28T10:53:49.736Z,0.88
2023-04-28T10:56:21.765Z,0.63
2023-04-28T10:58:50.964Z,0.50
2023-04-28T11:01:32.341Z,0.68
2023-04-28T11:04:18.590Z,0.98
2023-04-28T11:06:54.948Z,0.65
2023-04-28T11:09:21.849Z,0.77
2023-04-28T11:12:00.924Z,0.63
2023-04-28T11:14:41.013Z,0.60
2023-04-28T11:17:13.946Z,0.82
2023-04-28T11:19:46.812Z,0.50
2023-04-28T11:22:22.074Z,0.90
2023-04-28T11:25:03.082Z,0.68
2023-04-28T11:27:32.734Z,0.98
2023-04-28T11:30:00.948Z,0.20
2023-04-28T11:32:31.136Z,0.30
2023-04-28T11:34:58.359Z,0.40
2023-04-28T11:37:25.663Z,0.30
2023-04-28T11:39:53.014Z,0.20
2023-04-28T11:42:20.155Z,2.67
2023-04-28T11:44:54.831Z,0.50
2023-04-28T11:47:31.834Z,0.68
2023-04-28T11:49:59.337Z,0.45
2023-04-28T11:52:27.599Z,0.57
2023-04-28T11:54:56.824Z,0.45
2023-04-28T11:57:24.029Z,0.30
2023-04-28T11:59:51.450Z,0.40
2023-04-28T12:02:32.223Z,0.38
2023-04-28T12:05:07.879Z,0.90
2023-04-28T12:07:43.609Z,0.65
2023-04-28T12:10:19.125Z,0.93
2023-04-28T12:12:52.406Z,0.90
2023-04-28T12:15:22.201Z,0.57
2023-04-28T12:17:51.370Z,0.70
2023-04-28T12:20:36.702Z,1.02
2023-04-28T12:23:04.035Z,0.35
2023-04-28T12:25:33.999Z,0.50
2023-04-28T12:28:04.811Z,0.40
2023-04-28T12:30:33.746Z,0.75
2023-04-28T12:33:01.113Z,0.30
2023-04-28T12:35:29.601Z,0.20
2023-04-28T12:37:58.778Z,0.30
2023-04-28T12:40:26.364Z,0.20
2023-04-28T12:42:54.430Z,1.00
2023-04-28T12:45:21.522Z,0.57
2023-04-28T12:47:48.636Z,0.45
2023-04-28T12:50:15.887Z,0.10
2023-04-28T12:52:42.816Z,0.50
2023-04-28T12:55:10.308Z,0.40
2023-04-28T12:57:39.363Z,0.88
2023-04-28T13:00:08.506Z,0.40
2023-04-28T13:02:35.718Z,0.20
2023-04-28T13:05:03.305Z,0.35
2023-04-28T13:07:30.653Z,0.63
2023-04-28T13:09:58.612Z,0.47
2023-04-28T13:12:26.088Z,0.20
2023-04-28T13:14:53.580Z,0.45
2023-04-28T13:17:24.082Z,0.35
2023-04-28T13:19:51.035Z,0.70
2023-04-28T13:22:18.573Z,0.50
2023-04-28T13:24:45.742Z,0.40
2023-04-28T13:27:12.750Z,0.40
2023-04-28T13:29:40.422Z,0.40
2023-04-28T13:32:07.847Z,0.30
2023-04-28T13:34:35.294Z,0.30
2023-04-28T13:37:02.342Z,0.43
2023-04-28T13:39:29.406Z,0.35
2023-04-28T13:41:56.703Z,1.52
2023-04-28T13:44:23.958Z,0.57
2023-04-28T13:46:50.812Z,0.70
2023-04-28T13:49:18.155Z,0.10
2023-04-28T13:51:45.905Z,0.63
2023-04-28T13:54:14.537Z,0.68
2023-04-28T13:56:42.422Z,0.15
2023-04-28T13:59:09.354Z,0.30
2023-04-28T14:01:39.360Z,0.40
2023-04-28T14:04:06.958Z,0.32
2023-04-28T14:06:35.062Z,0.57
2023-04-28T14:09:02.961Z,0.32
2023-04-28T14:11:29.895Z,0.20
2023-04-28T14:13:56.775Z,0.40
2023-04-28T14:16:23.661Z,0.13
2023-04-28T14:18:53.515Z,0.68
2023-04-28T14:21:23.383Z,0.30
2023-04-28T14:23:50.416Z,0.40
2023-04-28T14:26:17.260Z,0.30
2023-04-28T14:28:44.121Z,0.20
2023-04-28T14:31:13.824Z,0.30
2023-04-28T14:33:41.811Z,0.38
2023-04-28T14:36:09.414Z,0.32
2023-04-28T14:38:38.256Z,0.40
2023-04-28T14:41:06.384Z,0.25
2023-04-28T14:43:33.290Z,0.40
2023-04-28T14:46:00.000Z,1.35
2023-04-28T14:48:32.661Z,0.40
2023-04-28T14:50:59.858Z,0.47
2023-04-28T14:53:26.774Z,0.55
2023-04-28T14:56:11.187Z,0.50
2023-04-28T14:58:44.807Z,0.40
2023-04-28T15:01:12.053Z,0.50
2023-04-28T15:03:39.588Z,0.30
2023-04-28T15:06:06.709Z,0.30
2023-04-28T15:08:33.741Z,0.25
2023-04-28T15:11:00.763Z,0.32
2023-04-28T15:13:28.909Z,0.60
2023-04-28T15:15:56.815Z,0.40
2023-04-28T15:18:24.096Z,0.80
2023-04-28T15:20:51.634Z,0.95
2023-04-28T15:23:19.885Z,0.30
2023-04-28T15:25:47.494Z,1.23
2023-04-28T15:28:14.598Z,1.30
2023-04-28T15:30:41.496Z,0.80
2023-04-28T15:33:08.526Z,0.20
2023-04-28T15:35:35.643Z,0.80
2023-04-28T15:38:02.439Z,0.40
2023-04-28T15:40:29.240Z,0.40
2023-04-28T15:42:56.209Z,0.50
2023-04-28T15:45:23.207Z,0.65
2023-04-28T15:47:51.177Z,0.50
2023-04-28T15:50:20.371Z,0.40
2023-04-28T15:52:50.152Z,0.30
2023-04-28T15:55:18.852Z,0.50
2023-04-28T15:57:47.086Z,0.50
2023-04-28T16:00:15.668Z,0.40
2023-04-28T16:02:46.842Z,0.40
2023-04-28T16:05:13.892Z,0.73
2023-04-28T16:07:41.290Z,0.40
2023-04-28T16:10:10.452Z,0.47
2023-04-28T16:12:39.064Z,0.50
2023-04-28T16:15:07.522Z,0.28
2023-04-28T16:17:36.029Z,0.20
2023-04-28T16:20:05.517Z,0.70
2023-04-28T16:22:32.694Z,0.68
2023-04-28T16:25:07.011Z,0.28
2023-04-28T16:27:37.262Z,0.10
2023-04-28T16:30:08.751Z,0.20
2023-04-28T16:32:38.909Z,0.30
2023-04-28T16:35:15.318Z,0.50
2023-04-28T16:37:43.491Z,0.30
2023-04-28T16:40:11.305Z,0.20
2023-04-28T16:42:38.931Z,0.30
2023-04-28T16:45:06.376Z,0.20
2023-04-28T16:47:34.171Z,0.20
2023-04-28T16:50:01.328Z,0.30
2023-04-28T16:52:28.148Z,0.43
2023-04-28T16:54:54.880Z,0.30
2023-04-28T16:57:22.015Z,0.40
2023-04-28T16:59:49.151Z,0.30
2023-04-28T17:02:16.217Z,0.73
2023-04-28T17:04:43.200Z,0.60
2023-04-28T17:07:10.362Z,0.60
2023-04-28T17:09:37.440Z,0.50
2023-04-28T17:12:04.490Z,0.20
2023-04-28T17:14:31.426Z,0.43
2023-04-28T17:16:58.229Z,0.20
2023-04-28T17:19:25.250Z,0.43
2023-04-28T17:21:57.420Z,0.55
2023-04-28T17:24:24.414Z,1.08
2023-04-28T17:26:52.158Z,1.70
2023-04-28T17:29:19.558Z,0.50
2023-04-28T17:31:46.679Z,0.60
2023-04-28T17:34:13.514Z,0.80
2023-04-28T17:36:43.384Z,0.55
2023-04-28T17:39:15.561Z,0.30
2023-04-28T17:41:43.812Z,0.30
2023-04-28T17:44:10.662Z,0.47
2023-04-28T17:46:38.766Z,0.30
2023-04-28T17:49:05.971Z,0.50
2023-04-28T17:51:33.088Z,0.30
2023-04-28T17:54:00.152Z,4.05
2023-04-28T17:56:27.598Z,1.70
2023-04-28T17:58:55.402Z,0.60
2023-04-28T18:01:22.730Z,0.50
2023-04-28T18:03:52.642Z,0.47
2023-04-28T18:06:24.541Z,0.70
2023-04-28T18:08:51.469Z,0.70
2023-04-28T18:11:18.335Z,1.10
2023-04-28T18:13:45.233Z,0.82
2023-04-28T18:16:15.032Z,0.75
2023-04-28T18:18:42.402Z,1.15
2023-04-28T18:21:09.752Z,1.20
2023-04-28T18:23:36.561Z,0.60
2023-04-28T18:26:03.532Z,0.70
2023-04-28T18:28:30.528Z,0.80
2023-04-28T18:30:57.403Z,0.95
2023-04-28T18:33:28.717Z,1.02
2023-04-28T18:36:05.434Z,0.95
2023-04-28T18:38:34.759Z,0.90
2023-04-28T18:41:17.565Z,1.17
2023-04-28T18:43:44.852Z,1.35
2023-04-28T18:46:11.759Z,0.77
2023-04-28T18:48:39.250Z,0.80
2023-04-28T18:51:06.616Z,2.30
2023-04-28T18:53:33.501Z,0.80
2023-04-28T18:56:00.636Z,0.80
2023-04-28T18:58:28.359Z,0.93
2023-04-28T19:00:55.515Z,0.80
2023-04-28T19:03:23.268Z,0.80
2023-04-28T19:05:50.345Z,1.27
2023-04-28T19:08:17.349Z,1.42
2023-04-28T19:10:45.096Z,1.00
2023-04-28T19:13:12.190Z,1.63
2023-04-28T19:15:39.158Z,0.93
2023-04-28T19:18:07.027Z,1.20
2023-04-28T19:20:34.524Z,1.17
2023-04-28T19:23:02.080Z,1.85
2023-04-28T19:25:33.865Z,1.00
2023-04-28T19:28:00.986Z,1.52
2023-04-28T19:30:28.204Z,1.00
2023-04-28T19:32:55.189Z,1.25
2023-04-28T19:35:22.338Z,0.60
2023-04-28T19:37:50.010Z,0.85
2023-04-28T19:40:16.997Z,0.70
2023-04-28T19:42:44.569Z,0.98
2023-04-28T19:45:11.972Z,0.70
2023-04-28T19:47:39.587Z,1.10
2023-04-28T19:50:10.285Z,0.63
2023-04-28T19:52:37.631Z,1.15
2023-04-28T19:55:04.803Z,1.13
2023-04-28T19:57:31.847Z,1.50
2023-04-28T19:59:59.531Z,1.80
2023-04-28T20:02:26.588Z,1.17
2023-04-28T20:04:53.581Z,1.80
2023-04-28T20:07:30.457Z,2.30
2023-04-28T20:09:59.586Z,1.38
2023-04-28T20:12:26.740Z,1.10
2023-04-28T20:14:53.680Z,1.10
2023-04-28T20:17:21.106Z,1.02
2023-04-28T20:19:48.199Z,2.00
2023-04-28T20:22:15.080Z,0.93
2023-04-28T20:24:41.966Z,1.95
2023-04-28T20:27:09.562Z,1.27
2023-04-28T20:29:37.342Z,4.05
2023-04-28T20:32:05.240Z,2.28
2023-04-28T20:34:32.911Z,1.80
2023-04-28T20:37:03.493Z,1.27
2023-04-28T20:39:31.392Z,1.10
2023-04-28T20:41:59.904Z,1.55
2023-04-28T20:44:27.288Z,1.73
2023-04-28T20:46:55.534Z,1.27
2023-04-28T20:49:22.561Z,1.60
2023-04-28T20:51:50.201Z,1.40
2023-04-28T20:54:17.009Z,1.65
2023-04-28T20:56:44.065Z,1.60
2023-04-28T20:59:11.128Z,1.40
2023-04-28T21:01:41.235Z,1.40
2023-04-28T21:04:09.030Z,1.75
2023-04-28T21:06:36.859Z,1.20
2023-04-28T21:09:06.777Z,0.98
2023-04-28T21:11:33.563Z,1.83
2023-04-28T21:14:00.515Z,1.15
2023-04-28T21:16:29.634Z,1.30
2023-04-28T21:18:56.827Z,1.23
2023-04-28T21:21:23.912Z,1.40
2023-04-28T21:23:50.981Z,1.15
2023-04-28T21:26:21.207Z,1.83
2023-04-28T21:28:49.095Z,1.10
2023-04-28T21:31:16.323Z,1.38
2023-04-28T21:33:43.334Z,1.10
2023-04-28T21:36:10.430Z,1.20
2023-04-28T21:38:38.115Z,1.70
2023-04-28T21:41:05.674Z,1.63
2023-04-28T21:43:32.621Z,1.70
2023-04-28T21:46:00.863Z,2.50
2023-04-28T21:48:28.168Z,1.55
2023-04-28T21:50:55.022Z,1.92
2023-04-28T21:53:22.197Z,2.10
2023-04-28T21:55:49.633Z,1.63
2023-04-28T21:58:17.091Z,1.75
2023-04-28T22:00:47.248Z,3.38
2023-04-28T22:03:15.706Z,3.78
2023-04-28T22:05:44.810Z,1.92
2023-04-28T22:08:12.147Z,1.48
2023-04-28T22:10:40.188Z,1.35
2023-04-28T22:13:07.474Z,1.20
2023-04-28T22:15:34.531Z,1.40
2023-04-28T22:18:01.571Z,1.42
2023-04-28T22:20:28.729Z,1.27
2023-04-28T22:22:55.965Z,1.30
2023-04-28T22:25:22.976Z,1.30
2023-04-28T22:27:49.839Z,1.30
2023-04-28T22:30:16.978Z,1.48
2023-04-28T22:32:47.720Z,1.20
2023-04-28T22:35:16.826Z,1.40
2023-04-28T22:37:44.242Z,1.58
2023-04-28T22:40:11.829Z,1.15
2023-04-28T22:42:40.451Z,1.75
2023-04-28T22:45:08.468Z,1.77
2023-04-28T22:47:35.623Z,1.67
2023-04-28T22:50:06.044Z,2.05
2023-04-28T22:52:33.566Z,2.72
2023-04-28T22:55:01.679Z,1.48
2023-04-28T22:57:28.776Z,2.03
2023-04-28T22:59:55.531Z,1.33
2023-04-28T23:02:23.346Z,1.27
2023-04-28T23:04:51.187Z,1.35
2023-04-28T23:07:18.330Z,1.70
2023-04-28T23:09:45.365Z,1.38
2023-04-28T23:12:12.464Z,1.45
2023-04-28T23:14:39.540Z,1.98
2023-04-28T23:17:06.536Z,2.97
2023-04-28T23:19:35.664Z,2.83
2023-04-28T23:22:02.752Z,2.90
2023-04-28T23:24:29.576Z,1.70
2023-04-28T23:26:57.082Z,1.83
2023-04-28T23:29:24.222Z,2.08
2023-04-28T23:31:54.907Z,2.30
2023-04-28T23:34:22.793Z,1.77
2023-04-28T23:36:50.372Z,1.80
2023-04-28T23:39:19.319Z,1.70
2023-04-28T23:41:46.335Z,1.90
2023-04-28T23:44:15.402Z,1.30
2023-04-28T23:46:42.384Z,1.65
2023-04-28T23:49:09.739Z,1.83
2023-04-28T23:51:39.523Z,1.52
2023-04-28T23:54:06.445Z,1.40
2023-04-28T23:56:33.373Z,1.27
2023-04-28T23:59:00.512Z,1.38
